| time (UTC) | temp C | wind direction | speed KPH | gust KPH | rain 1hr cm | rain 24hr cm | rain mn cm | humidity % | barometer mb |
| 20260505065503 | 17 | 6 | 6.4 | 14.5 | 0.00 | 0.00 | 0.00 | 72 | 1005.4 |
| 20260505065003 | 17 | 7 | 9.7 | 20.9 | 0.00 | 0.00 | 0.00 | 71 | 1005.3 |
| 20260505064503 | 17 | 22 | 9.7 | 20.9 | 0.00 | 0.00 | 0.00 | 69 | 1005.6 |
| 20260505064003 | 18 | 13 | 11.3 | 24.1 | 0.00 | 0.00 | 0.00 | 67 | 1005.2 |
| 20260505063503 | 18 | 3 | 14.5 | 30.6 | 0.00 | 0.00 | 0.00 | 65 | 1005.4 |
| 20260505063003 | 19 | 12 | 12.9 | 30.6 | 0.00 | 0.00 | 0.00 | 62 | 1005.1 |
| 20260505062503 | 20 | 5 | 11.3 | 30.6 | 0.00 | 0.00 | 0.00 | 60 | 1004.8 |
| 20260505062003 | 20 | 358 | 12.9 | 33.8 | 0.00 | 0.00 | 0.00 | 58 | 1005.0 |
| 20260505061503 | 21 | 320 | 12.9 | 33.8 | 0.00 | 0.00 | 0.00 | 60 | 1004.9 |
| 20260505061003 | 21 | 235 | 9.7 | 20.9 | 0.00 | 0.00 | 0.00 | 62 | 1003.9 |
| 20260505060524 | 21 | 228 | 9.7 | 19.3 | 0.00 | 0.00 | 0.00 | 62 | 1003.2 |
| 20260505060003 | 21 | 231 | 11.3 | 24.1 | 0.00 | 0.00 | 0.00 | 62 | 1003.1 |
| 20260505055503 | 21 | 234 | 11.3 | 29.0 | 0.00 | 0.00 | 0.00 | 61 | 1003.1 |
| 20260505055003 | 21 | 230 | 12.9 | 29.0 | 0.00 | 0.00 | 0.00 | 61 | 1002.9 |
| 20260505054503 | 21 | 223 | 12.9 | 29.0 | 0.00 | 0.00 | 0.00 | 61 | 1002.8 |
| 20260505054003 | 21 | 229 | 12.9 | 25.7 | 0.00 | 0.00 | 0.00 | 61 | 1002.7 |
| 20260505053503 | 22 | 230 | 14.5 | 29.0 | 0.00 | 0.00 | 0.00 | 60 | 1002.6 |
| 20260505053024 | 22 | 231 | 16.1 | 32.2 | 0.00 | 0.00 | 0.00 | 60 | 1002.6 |
| 20260505052503 | 22 | 231 | 16.1 | 32.2 | 0.00 | 0.00 | 0.00 | 60 | 1002.5 |
| 20260505052002 | 22 | 229 | 14.5 | 27.4 | 0.00 | 0.00 | 0.00 | 60 | 1002.5 |
| 20260505051524 | 22 | 227 | 14.5 | 29.0 | 0.00 | 0.00 | 0.00 | 60 | 1002.3 |
| 20260505051024 | 22 | 222 | 12.9 | 30.6 | 0.00 | 0.00 | 0.00 | 60 | 1002.1 |
| 20260505050503 | 22 | 226 | 14.5 | 33.8 | 0.00 | 0.00 | 0.00 | 60 | 1002.0 |
| 20260505041503 | 21 | 208 | 8.0 | 22.5 | 0.00 | 0.00 | 0.00 | 61 | 1002.1 |
| 20260505041003 | 21 | 209 | 8.0 | 22.5 | 0.00 | 0.00 | 0.00 | 61 | 1001.9 |
| 20260505040503 | 21 | 204 | 9.7 | 20.9 | 0.00 | 0.00 | 0.00 | 61 | 1001.9 |
| 20260505040003 | 21 | 202 | 8.0 | 20.9 | 0.00 | 0.00 | 0.00 | 61 | 1001.9 |
| 20260505035503 | 21 | 204 | 6.4 | 16.1 | 0.00 | 0.00 | 0.00 | 61 | 1002.0 |
| 20260505035003 | 22 | 204 | 8.0 | 16.1 | 0.00 | 0.00 | 0.00 | 61 | 1002.2 |
| 20260505034503 | 22 | 208 | 8.0 | 14.5 | 0.00 | 0.00 | 0.00 | 61 | 1002.2 |
| 20260505034003 | 22 | 214 | 6.4 | 16.1 | 0.00 | 0.00 | 0.00 | 61 | 1002.3 |
| 20260505033503 | 22 | 214 | 6.4 | 19.3 | 0.00 | 0.00 | 0.00 | 61 | 1002.4 |
| 20260505033003 | 22 | 211 | 6.4 | 19.3 | 0.00 | 0.00 | 0.00 | 61 | 1002.4 |
| 20260505032503 | 22 | 214 | 4.8 | 14.5 | 0.00 | 0.00 | 0.00 | 61 | 1002.5 |
| 20260505032003 | 22 | 222 | 4.8 | 11.3 | 0.00 | 0.00 | 0.00 | 60 | 1002.5 |
| 20260505031503 | 22 | 213 | 6.4 | 12.9 | 0.00 | 0.00 | 0.00 | 60 | 1002.5 |
| 20260505031003 | 22 | 211 | 6.4 | 12.9 | 0.00 | 0.00 | 0.00 | 60 | 1002.4 |
| 20260505030503 | 22 | 209 | 8.0 | 12.9 | 0.00 | 0.00 | 0.00 | 60 | 1002.3 |
| 20260505030024 | 22 | 206 | 8.0 | 14.5 | 0.00 | 0.00 | 0.00 | 60 | 1002.3 |
| 20260505025503 | 22 | 205 | 8.0 | 14.5 | 0.00 | 0.00 | 0.00 | 60 | 1002.3 |
| 20260505025003 | 22 | 204 | 4.8 | 12.9 | 0.00 | 0.00 | 0.00 | 60 | 1002.3 |
| 20260505024524 | 22 | 209 | 4.8 | 11.3 | 0.00 | 0.00 | 0.00 | 60 | 1002.2 |
| 20260505024003 | 22 | 211 | 4.8 | 9.7 | 0.00 | 0.00 | 0.00 | 60 | 1002.1 |
| 20260505023503 | 22 | 209 | 3.2 | 11.3 | 0.00 | 0.00 | 0.00 | 59 | 1002.1 |
| 20260505023003 | 22 | 208 | 1.6 | 11.3 | 0.00 | 0.00 | 0.00 | 59 | 1002.0 |
| 20260505022503 | 22 | 210 | 3.2 | 8.0 | 0.00 | 0.00 | 0.00 | 59 | 1002.0 |
| 20260505022003 | 22 | 210 | 3.2 | 9.7 | 0.00 | 0.00 | 0.00 | 58 | 1001.9 |
| 20260505021503 | 23 | 208 | 3.2 | 9.7 | 0.00 | 0.00 | 0.00 | 58 | 1001.7 |
| 20260505021003 | 23 | 206 | 3.2 | 9.7 | 0.00 | 0.00 | 0.00 | 57 | 1001.6 |
| 20260505020503 | 23 | 207 | 3.2 | 9.7 | 0.00 | 0.00 | 0.00 | 56 | 1001.5 |
| 20260505020003 | 23 | 211 | 3.2 | 8.0 | 0.00 | 0.00 | 0.00 | 56 | 1001.4 |
| 20260505015503 | 23 | 211 | 4.8 | 12.9 | 0.00 | 0.00 | 0.00 | 55 | 1001.3 |
| 20260505015003 | 23 | 207 | 4.8 | 12.9 | 0.00 | 0.00 | 0.00 | 55 | 1001.2 |
| 20260505014503 | 23 | 210 | 4.8 | 12.9 | 0.00 | 0.00 | 0.00 | 54 | 1001.1 |
| 20260505014003 | 23 | 228 | 6.4 | 14.5 | 0.00 | 0.00 | 0.00 | 53 | 1001.1 |
| 20260505013503 | 23 | 227 | 6.4 | 14.5 | 0.00 | 0.00 | 0.00 | 53 | 1001.0 |
| 20260505013003 | 24 | 214 | 6.4 | 12.9 | 0.00 | 0.00 | 0.00 | 53 | 1000.9 |
| 20260505012503 | 24 | 214 | 4.8 | 12.9 | 0.00 | 0.00 | 0.00 | 52 | 1000.8 |
| 20260505012003 | 24 | 224 | 4.8 | 12.9 | 0.00 | 0.00 | 0.00 | 52 | 1000.8 |
| 20260505011503 | 24 | 229 | 6.4 | 16.1 | 0.00 | 0.00 | 0.00 | 51 | 1000.8 |
| 20260505011003 | 24 | 236 | 6.4 | 16.1 | 0.00 | 0.00 | 0.00 | 51 | 1000.8 |
| 20260505010503 | 25 | 236 | 8.0 | 17.7 | 0.00 | 0.00 | 0.00 | 50 | 1000.8 |
| 20260505010003 | 25 | 231 | 8.0 | 17.7 | 0.00 | 0.00 | 0.00 | 50 | 1000.7 |
| 20260505005524 | 25 | 232 | 8.0 | 17.7 | 0.00 | 0.00 | 0.00 | 51 | 1000.7 |
| 20260505005024 | 25 | 232 | 8.0 | 17.7 | 0.00 | 0.00 | 0.00 | 50 | 1000.6 |
| 20260505004503 | 25 | 232 | 9.7 | 20.9 | 0.00 | 0.00 | 0.00 | 50 | 1000.7 |
| 20260505004003 | 25 | 234 | 8.0 | 20.9 | 0.00 | 0.00 | 0.00 | 51 | 1000.7 |
| 20260505003503 | 25 | 223 | 6.4 | 20.9 | 0.00 | 0.00 | 0.00 | 50 | 1000.5 |
| 20260505003003 | 25 | 219 | 6.4 | 16.1 | 0.00 | 0.00 | 0.00 | 50 | 1000.5 |
| 20260505002503 | 25 | 224 | 8.0 | 16.1 | 0.00 | 0.00 | 0.00 | 49 | 1000.5 |
| 20260505002003 | 26 | 232 | 8.0 | 17.7 | 0.00 | 0.00 | 0.00 | 49 | 1000.3 |
| 20260505001503 | 26 | 231 | 8.0 | 17.7 | 0.00 | 0.00 | 0.00 | 49 | 1000.4 |
| 20260505001003 | 26 | 228 | 9.7 | 22.5 | 0.00 | 0.00 | 0.00 | 49 | 1000.4 |
| 20260505000503 | 26 | 233 | 9.7 | 22.5 | 0.00 | 0.00 | 0.00 | 49 | 1000.5 |
| 20260505000003 | 26 | 231 | 8.0 | 19.3 | 0.00 | 0.00 | 0.00 | 49 | 1000.4 |
| 20260504235503 | 26 | 237 | 9.7 | 22.5 | 0.00 | 0.00 | 0.00 | 49 | 1000.5 |
| 20260504235003 | 26 | 247 | 8.0 | 22.5 | 0.00 | 0.00 | 0.00 | 49 | 1000.5 |
| 20260504234503 | 26 | 243 | 8.0 | 22.5 | 0.00 | 0.00 | 0.00 | 50 | 1000.5 |
| 20260504234003 | 26 | 235 | 9.7 | 22.5 | 0.00 | 0.00 | 0.00 | 49 | 1000.5 |
| 20260504233503 | 26 | 232 | 9.7 | 19.3 | 0.00 | 0.00 | 0.00 | 49 | 1000.6 |
| 20260504233003 | 26 | 229 | 8.0 | 24.1 | 0.00 | 0.00 | 0.00 | 49 | 1000.6 |
| 20260504232503 | 26 | 224 | 9.7 | 24.1 | 0.00 | 0.00 | 0.00 | 49 | 1000.6 |
| 20260504232003 | 26 | 224 | 9.7 | 22.5 | 0.00 | 0.00 | 0.00 | 49 | 1000.7 |
| 20260504231503 | 26 | 232 | 9.7 | 22.5 | 0.00 | 0.00 | 0.00 | 49 | 1000.7 |
| 20260504231003 | 26 | 235 | 9.7 | 22.5 | 0.00 | 0.00 | 0.00 | 49 | 1000.7 |
| 20260504230503 | 26 | 231 | 11.3 | 24.1 | 0.00 | 0.00 | 0.00 | 49 | 1000.7 |
| 20260504230024 | 26 | 223 | 11.3 | 24.1 | 0.00 | 0.00 | 0.00 | 48 | 1000.8 |
| 20260504225503 | 26 | 228 | 11.3 | 22.5 | 0.00 | 0.00 | 0.00 | 49 | 1000.8 |
| 20260504225003 | 26 | 232 | 11.3 | 22.5 | 0.00 | 0.00 | 0.00 | 47 | 1000.9 |
| 20260504224503 | 26 | 227 | 8.0 | 20.9 | 0.00 | 0.00 | 0.00 | 48 | 1000.9 |
| 20260504224003 | 26 | 238 | 9.7 | 27.4 | 0.00 | 0.00 | 0.00 | 49 | 1001.0 |
| 20260504223503 | 26 | 233 | 9.7 | 27.4 | 0.00 | 0.00 | 0.00 | 49 | 1001.0 |
| 20260504223003 | 26 | 228 | 9.7 | 27.4 | 0.00 | 0.00 | 0.00 | 48 | 1001.0 |
| 20260504222503 | 26 | 227 | 9.7 | 27.4 | 0.00 | 0.00 | 0.00 | 48 | 1001.0 |
| 20260504222003 | 26 | 218 | 9.7 | 25.7 | 0.00 | 0.00 | 0.00 | 50 | 1001.0 |
| 20260504221503 | 26 | 213 | 9.7 | 22.5 | 0.00 | 0.00 | 0.00 | 50 | 1001.0 |
| 20260504221003 | 26 | 220 | 9.7 | 22.5 | 0.00 | 0.00 | 0.00 | 51 | 1001.0 |
| 20260504220524 | 26 | 223 | 11.3 | 22.5 | 0.00 | 0.00 | 0.00 | 50 | 1001.0 |
| 20260504220003 | 26 | 217 | 11.3 | 24.1 | 0.00 | 0.00 | 0.00 | 49 | 1001.0 |
| 20260504215503 | 27 | 214 | 11.3 | 27.4 | 0.00 | 0.00 | 0.00 | 50 | 1001.1 |
| 20260504215003 | 26 | 214 | 11.3 | 27.4 | 0.00 | 0.00 | 0.00 | 50 | 1001.1 |
| 20260504214503 | 26 | 216 | 11.3 | 22.5 | 0.00 | 0.00 | 0.00 | 50 | 1001.1 |
| 20260504214003 | 27 | 211 | 11.3 | 22.5 | 0.00 | 0.00 | 0.00 | 49 | 1001.2 |
| 20260504213503 | 27 | 202 | 9.7 | 22.5 | 0.00 | 0.00 | 0.00 | 50 | 1001.2 |
| 20260504213003 | 27 | 215 | 9.7 | 22.5 | 0.00 | 0.00 | 0.00 | 50 | 1001.2 |
| 20260504212524 | 27 | 237 | 11.3 | 27.4 | 0.00 | 0.00 | 0.00 | 50 | 1001.1 |
| 20260504212003 | 27 | 236 | 12.9 | 27.4 | 0.00 | 0.00 | 0.00 | 49 | 1001.2 |
| 20260504211524 | 26 | 228 | 16.1 | 33.8 | 0.00 | 0.00 | 0.00 | 49 | 1001.2 |
| 20260504211003 | 27 | 228 | 17.7 | 38.6 | 0.00 | 0.00 | 0.00 | 48 | 1001.2 |
| 20260504210503 | 27 | 228 | 17.7 | 38.6 | 0.00 | 0.00 | 0.00 | 48 | 1001.2 |
| 20260504210003 | 27 | 227 | 16.1 | 33.8 | 0.00 | 0.00 | 0.00 | 48 | 1001.2 |
| 20260504205503 | 27 | 220 | 14.5 | 30.6 | 0.00 | 0.00 | 0.00 | 50 | 1001.4 |
| 20260504205003 | 26 | 208 | 12.9 | 29.0 | 0.00 | 0.00 | 0.00 | 53 | 1001.3 |
| 20260504204503 | 26 | 209 | 11.3 | 27.4 | 0.00 | 0.00 | 0.00 | 52 | 1001.3 |
| 20260504204003 | 26 | 207 | 11.3 | 25.7 | 0.00 | 0.00 | 0.00 | 52 | 1001.4 |
| 20260504203503 | 26 | 214 | 11.3 | 25.7 | 0.00 | 0.00 | 0.00 | 52 | 1001.4 |
| 20260504203003 | 26 | 225 | 9.7 | 24.1 | 0.00 | 0.00 | 0.00 | 53 | 1001.4 |
| 20260504202524 | 26 | 219 | 11.3 | 27.4 | 0.00 | 0.00 | 0.00 | 55 | 1001.5 |
| 20260504202003 | 26 | 212 | 11.3 | 27.4 | 0.00 | 0.00 | 0.00 | 55 | 1001.6 |
| 20260504201524 | 25 | 218 | 11.3 | 24.1 | 0.00 | 0.00 | 0.00 | 56 | 1001.9 |
| 20260504201003 | 25 | 228 | 11.3 | 24.1 | 0.00 | 0.00 | 0.00 | 56 | 1001.9 |
| 20260504200503 | 25 | 220 | 11.3 | 24.1 | 0.00 | 0.00 | 0.00 | 56 | 1001.9 |
| 20260504200003 | 25 | 213 | 8.0 | 19.3 | 0.00 | 0.00 | 0.00 | 57 | 1002.1 |
| 20260504195503 | 25 | 219 | 8.0 | 19.3 | 0.00 | 0.00 | 0.00 | 60 | 1002.3 |
| 20260504195003 | 25 | 213 | 6.4 | 19.3 | 0.00 | 0.00 | 0.00 | 60 | 1002.4 |
| 20260504194524 | 24 | 219 | 6.4 | 16.1 | 0.00 | 0.00 | 0.00 | 60 | 1002.4 |
| 20260504194003 | 23 | 229 | 6.4 | 16.1 | 0.00 | 0.00 | 0.00 | 62 | 1002.5 |
| 20260504193503 | 23 | 213 | 6.4 | 12.9 | 0.00 | 0.00 | 0.00 | 63 | 1002.5 |
| 20260504193003 | 23 | 208 | 8.0 | 17.7 | 0.00 | 0.00 | 0.00 | 64 | 1002.5 |
| 20260504192503 | 22 | 199 | 8.0 | 17.7 | 0.00 | 0.00 | 0.00 | 64 | 1002.7 |
| 20260504192003 | 22 | 196 | 9.7 | 17.7 | 0.00 | 0.00 | 0.00 | 64 | 1002.8 |
| 20260504191503 | 22 | 204 | 9.7 | 17.7 | 0.00 | 0.00 | 0.00 | 65 | 1002.9 |
| 20260504191003 | 22 | 209 | 9.7 | 30.6 | 0.00 | 0.00 | 0.00 | 67 | 1003.0 |
| 20260504190503 | 21 | 207 | 11.3 | 30.6 | 0.00 | 0.00 | 0.00 | 69 | 1003.0 |
| 20260504190003 | 20 | 201 | 11.3 | 20.9 | 0.00 | 0.00 | 0.00 | 70 | 1002.8 |
| 20260504185503 | 20 | 186 | 14.5 | 32.2 | 0.00 | 0.00 | 0.00 | 70 | 1002.5 |
| 20260504185003 | 19 | 177 | 16.1 | 32.2 | 0.00 | 0.00 | 0.00 | 69 | 1002.2 |
| 20260504184503 | 19 | 173 | 19.3 | 45.1 | 0.00 | 0.00 | 0.00 | 68 | 1001.9 |
| 20260504184003 | 19 | 172 | 20.9 | 45.1 | 0.00 | 0.00 | 0.00 | 68 | 1001.5 |
| 20260504183503 | 19 | 173 | 16.1 | 38.6 | 0.00 | 0.00 | 0.00 | 67 | 1001.7 |
| 20260504183003 | 19 | 178 | 16.1 | 27.4 | 0.00 | 0.00 | 0.00 | 66 | 1002.5 |
| 20260504182503 | 20 | 181 | 17.7 | 37.0 | 0.00 | 0.00 | 0.00 | 65 | 1003.1 |
| 20260504182003 | 20 | 181 | 17.7 | 37.0 | 0.00 | 0.00 | 0.00 | 64 | 1002.8 |
| 20260504181503 | 20 | 188 | 12.9 | 22.5 | 0.00 | 0.00 | 0.00 | 63 | 1003.1 |
| 20260504181003 | 20 | 193 | 11.3 | 22.5 | 0.00 | 0.00 | 0.00 | 62 | 1003.7 |
| 20260504180503 | 20 | 189 | 9.7 | 22.5 | 0.00 | 0.00 | 0.00 | 62 | 1003.9 |
| 20260504180024 | 20 | 178 | 8.0 | 16.1 | 0.00 | 0.00 | 0.00 | 62 | 1003.6 |
| 20260504175503 | 20 | 179 | 9.7 | 22.5 | 0.00 | 0.00 | 0.00 | 61 | 1003.3 |
| 20260504175024 | 21 | 183 | 9.7 | 22.5 | 0.00 | 0.00 | 0.00 | 60 | 1003.5 |
| 20260504174503 | 21 | 189 | 8.0 | 14.5 | 0.00 | 0.00 | 0.00 | 61 | 1003.7 |
| 20260504174024 | 21 | 197 | 8.0 | 14.5 | 0.00 | 0.00 | 0.00 | 62 | 1003.8 |
| 20260504173503 | 21 | 197 | 9.7 | 19.3 | 0.00 | 0.00 | 0.00 | 62 | 1003.8 |
| 20260504173003 | 21 | 196 | 9.7 | 19.3 | 0.00 | 0.00 | 0.00 | 62 | 1003.9 |
| 20260504172503 | 21 | 204 | 8.0 | 22.5 | 0.00 | 0.00 | 0.00 | 63 | 1003.8 |
| 20260504172003 | 21 | 206 | 6.4 | 22.5 | 0.00 | 0.00 | 0.00 | 63 | 1004.1 |
| 20260504171503 | 20 | 197 | 9.7 | 24.1 | 0.00 | 0.00 | 0.00 | 63 | 1004.4 |
| 20260504171003 | 20 | 198 | 11.3 | 27.4 | 0.00 | 0.00 | 0.00 | 63 | 1004.3 |
| 20260504170503 | 20 | 204 | 11.3 | 27.4 | 0.00 | 0.00 | 0.00 | 64 | 1004.3 |
| 20260504151003 | 17 | 186 | 9.7 | 17.7 | 0.00 | 0.00 | 0.00 | 68 | 1004.9 |
| 20260504150503 | 17 | 197 | 9.7 | 17.7 | 0.00 | 0.00 | 0.00 | 68 | 1004.8 |
| 20260504141003 | 18 | 203 | 6.4 | 11.3 | 0.00 | 0.00 | 0.00 | 64 | 1005.7 |
| 20260504140524 | 19 | 196 | 6.4 | 16.1 | 0.00 | 0.00 | 0.00 | 64 | 1005.7 |
| 20260504130503 | 18 | 193 | 8.0 | 14.5 | 0.00 | 0.00 | 0.00 | 67 | 1006.4 |
| 20260504110503 | 15 | 231 | 3.2 | 6.4 | 0.00 | 0.00 | 0.00 | 74 | 1006.5 |
| 20260504100503 | 16 | 209 | 1.6 | 8.0 | 0.00 | 0.00 | 0.00 | 67 | 1006.8 |
| 20260504082003 | 13 | 276 | 1.6 | 4.8 | 0.00 | 0.00 | 0.00 | 78 | 1006.7 |
| 20260504081503 | 13 | 277 | 1.6 | 4.8 | 0.00 | 0.00 | 0.00 | 77 | 1006.7 |
| 20260504081003 | 14 | 277 | 1.6 | 4.8 | 0.00 | 0.00 | 0.00 | 77 | 1006.8 |
| 20260504080503 | 14 | 0 | 0.0 | 3.2 | 0.00 | 0.00 | 0.00 | 76 | 1006.9 |